Huvudsida
METAR-TAF:

METAR-TAF

Flygplatser :

Florø flygplats

Florø, Norge

latitud: 61-35N, longitud: 005-02E, höjd: 0 m

Aktuellt väderrapport

Denna rapport gjordes för 43 minuter sedan, klockan 09:20 UTC
Vind 16 kt från sydväst
Temperatur 7°C
Fuktighet 81%
Tryck 1016 hPa
Sikt 10 km eller mer
Få moln på en höjd av 1500 ft
Få moln på en höjd av 2000 ft, Högtornande cumulus.

METAR: ENFL 200920Z 23016KT 9999 FEW015 FEW020TCU 07/04 Q1016

Tid: 11:03 (10:03 UTC)

Väderprognos

Denna rapport gjordes för 2 timmar och 3 minuter sedan, klockan 08:00 UTC
Prognos gäller från 20 kl. 09 UTC till 20 kl. 18 UTC
Vind 18 kt från sydväst
Sikt 10 km eller mer
Få moln på en höjd av 1500 ft, Högtornande cumulus.
Brutna moln på en höjd av 3000 ft
lätta regnskurar
Temporärt
från 20 kl. 09 UTC till 20 kl. 18 UTC
Brutna moln på en höjd av 1500 ft, Cumulonimbus.
regnskurar

TAF: ENFL 200800Z 2009/2018 22018KT 9999 -SHRA FEW015TCU BKN030 TEMPO 2009/2018 SHRA BKN015CB

Aktuella väderrapporter och prognoser från 4000 flygplatser (METAR- och TAF-rapporter).

De tillgängliga stationerna syns som gula och röda prickar på kartan.

För musen över prickarna för att se namnen på stationerna.

Klicka sedan för att få väderrapporter och prognoser.

För att ändra kartan: Klicka på de gröna knapparna med ett svart kors på för att zooma in; den gröna knappen med ett streck på för att zooma ut; eller på de gröna pilarna för angränsande kartor.


METAR-TAF: